Time;durP1;ratioP1;P1;durP2;ratioP2;P2;SDS_P1;SDS_P2;PMS_P1;PMS_P2;Temp;Humidity;BMP_temperature;BMP_pressure;BME280_temperature;BME280_humidity;BME280_pressure;Samples;Min_cycle;Max_cycle;Signal;HPM_P1;HPM_P2
2022/03/06 00:00:20;;;;;;;17.23;11.25;;;0.60;99.90;;;;;;6211901;23;20112;-84
2022/03/06 00:02:45;;;;;;;17.20;10.95;;;0.60;99.90;;;;;;6211560;23;20025;-82
2022/03/06 00:05:11;;;;;;;18.33;11.45;;;0.70;99.90;;;;;;6211959;23;20095;-84
2022/03/06 00:07:37;;;;;;;17.45;11.73;;;0.70;99.90;;;;;;6211749;23;20338;-82
2022/03/06 00:10:03;;;;;;;16.10;11.48;;;0.80;99.90;;;;;;6183620;23;20032;-83
2022/03/06 00:12:29;;;;;;;16.17;11.18;;;0.80;99.90;;;;;;6184903;23;20012;-83
2022/03/06 00:14:55;;;;;;;18.42;11.05;;;0.80;99.90;;;;;;6211468;23;20104;-85
2022/03/06 00:17:20;;;;;;;17.95;11.13;;;0.90;99.90;;;;;;6184239;23;20021;-84
2022/03/06 00:19:46;;;;;;;17.50;11.05;;;0.90;99.90;;;;;;6211775;23;20067;-83
2022/03/06 00:22:12;;;;;;;17.00;10.55;;;0.90;99.90;;;;;;6211635;23;20454;-83
2022/03/06 00:24:37;;;;;;;15.50;10.23;;;1.00;99.90;;;;;;6211764;23;20442;-84
2022/03/06 00:27:03;;;;;;;18.60;10.88;;;1.00;99.90;;;;;;6184148;23;20031;-82
2022/03/06 00:29:29;;;;;;;14.77;9.90;;;1.00;99.90;;;;;;6211402;23;20013;-83
2022/03/06 00:31:55;;;;;;;17.23;10.18;;;1.10;99.90;;;;;;6211816;23;20056;-84
2022/03/06 00:34:20;;;;;;;16.13;10.25;;;1.10;99.90;;;;;;6211707;23;20048;-84
2022/03/06 00:36:46;;;;;;;15.82;10.20;;;2.10;99.90;;;;;;6211902;23;20430;-84
2022/03/06 00:39:12;;;;;;;19.42;10.98;;;1.20;99.90;;;;;;6211967;23;20341;-82
2022/03/06 00:41:38;;;;;;;14.32;9.63;;;1.20;99.90;;;;;;6184320;23;20434;-84
2022/03/06 00:44:04;;;;;;;14.38;9.88;;;1.20;99.90;;;;;;6211682;23;20016;-83
2022/03/06 00:46:29;;;;;;;15.55;10.35;;;1.20;99.90;;;;;;6184961;23;20029;-85
2022/03/06 00:48:55;;;;;;;14.52;9.95;;;1.20;99.90;;;;;;6184843;23;20017;-85
2022/03/06 00:51:21;;;;;;;15.40;9.35;;;1.30;99.90;;;;;;6183935;23;20323;-85
2022/03/06 00:53:46;;;;;;;15.35;9.93;;;1.30;99.90;;;;;;6184699;23;20446;-85
2022/03/06 00:56:12;;;;;;;29.02;13.90;;;1.30;99.90;;;;;;6184789;23;20020;-84
2022/03/06 00:58:38;;;;;;;24.45;13.70;;;1.30;99.90;;;;;;6159160;23;20027;-84
2022/03/06 01:01:05;;;;;;;16.77;10.52;;;2.20;99.90;;;;;;6212166;23;20020;-80
2022/03/06 01:03:32;;;;;;;13.43;8.65;;;1.30;99.90;;;;;;6213466;23;20023;-85
2022/03/06 01:05:58;;;;;;;14.20;8.52;;;2.50;99.90;;;;;;6186105;23;20021;-85
2022/03/06 01:08:24;;;;;;;12.90;7.88;;;1.40;99.90;;;;;;6213562;23;20438;-85
2022/03/06 01:10:51;;;;;;;16.45;7.95;;;1.40;99.90;;;;;;6213370;23;20345;-84
2022/03/06 01:13:18;;;;;;;12.18;7.80;;;1.40;99.90;;;;;;6185807;23;20095;-85
2022/03/06 01:15:44;;;;;;;14.55;7.88;;;1.40;99.90;;;;;;6213650;23;20017;-84
2022/03/06 01:18:10;;;;;;;13.07;7.28;;;1.50;99.90;;;;;;6213076;23;20035;-85
2022/03/06 01:20:37;;;;;;;13.68;8.13;;;1.50;99.90;;;;;;6213492;23;20039;-86
2022/03/06 01:23:04;;;;;;;12.32;7.55;;;1.50;99.90;;;;;;6212995;23;20053;-84
2022/03/06 01:25:30;;;;;;;14.63;7.65;;;1.50;99.90;;;;;;6213337;23;20025;-84
2022/03/06 01:27:55;;;;;;;15.80;7.38;;;1.50;99.90;;;;;;6213052;23;20024;-83
2022/03/06 01:30:22;;;;;;;13.07;7.47;;;1.50;99.90;;;;;;6213061;23;20027;-84
2022/03/06 01:32:49;;;;;;;10.70;7.03;;;1.60;99.90;;;;;;6213394;23;20015;-84
2022/03/06 01:35:14;;;;;;;15.15;7.13;;;1.60;99.90;;;;;;6213592;23;20055;-84
2022/03/06 01:37:40;;;;;;;14.07;7.85;;;1.60;99.90;;;;;;6212780;23;20016;-83
2022/03/06 01:40:07;;;;;;;11.98;7.45;;;1.60;99.90;;;;;;6185528;23;20021;-84
2022/03/06 01:42:34;;;;;;;17.35;7.85;;;1.60;99.90;;;;;;6213000;23;20020;-85
2022/03/06 01:44:59;;;;;;;11.95;7.60;;;1.60;99.90;;;;;;6212441;23;20016;-83
2022/03/06 01:47:35;;;;;;;12.35;8.00;;;1.60;99.90;;;;;;6185833;23;20020;-85
2022/03/06 01:50:03;;;;;;;11.98;7.28;;;1.60;99.90;;;;;;6186341;23;20032;-84
2022/03/06 01:52:28;;;;;;;11.85;7.30;;;2.50;99.90;;;;;;6212908;23;20483;-84
2022/03/06 01:54:54;;;;;;;12.60;7.65;;;1.60;99.90;;;;;;6213143;23;20087;-85
2022/03/06 01:57:20;;;;;;;14.75;7.97;;;2.60;99.90;;;;;;6185906;23;20031;-85
2022/03/06 01:59:46;;;;;;;12.98;7.82;;;1.60;99.90;;;;;;6212241;23;20087;-80
2022/03/06 02:02:11;;;;;;;13.15;7.53;;;1.60;99.90;;;;;;6210429;23;20476;-83
2022/03/06 02:04:37;;;;;;;13.48;7.70;;;2.50;99.90;;;;;;6212698;23;20094;-81
2022/03/06 02:07:03;;;;;;;12.88;7.30;;;1.60;99.90;;;;;;6212871;23;20012;-82
2022/03/06 02:09:29;;;;;;;13.15;6.90;;;1.60;99.90;;;;;;6212848;23;20070;-82
2022/03/06 02:14:39;;;;;;;10.45;6.80;;;1.60;99.90;;;;;;6212663;23;20086;-83
2022/03/06 02:17:04;;;;;;;12.20;7.45;;;1.60;99.90;;;;;;6212191;23;20456;-85
2022/03/06 02:19:30;;;;;;;14.38;7.75;;;1.60;99.90;;;;;;6212828;23;20038;-85
2022/03/06 02:21:56;;;;;;;11.93;6.55;;;1.60;99.90;;;;;;6212483;23;20457;-85
2022/03/06 02:24:21;;;;;;;13.68;6.75;;;1.60;99.90;;;;;;6212869;23;20036;-84
2022/03/06 02:26:47;;;;;;;13.93;6.95;;;1.50;99.90;;;;;;6185575;23;20039;-83
2022/03/06 02:29:12;;;;;;;11.48;6.60;;;1.50;99.90;;;;;;6185662;23;20354;-84
2022/03/06 02:31:39;;;;;;;11.73;7.07;;;1.50;99.90;;;;;;6212287;23;20016;-85
2022/03/06 02:34:05;;;;;;;15.52;7.75;;;1.50;99.90;;;;;;6212462;23;20017;-84
2022/03/06 02:36:31;;;;;;;11.13;6.15;;;1.50;99.90;;;;;;6212582;23;20070;-86
2022/03/06 02:38:57;;;;;;;10.00;5.57;;;1.50;99.90;;;;;;6212737;23;20095;-85
2022/03/06 02:41:22;;;;;;;11.15;6.25;;;1.50;99.90;;;;;;6211800;23;20016;-85
2022/03/06 02:43:48;;;;;;;11.13;6.38;;;1.50;99.90;;;;;;6212254;23;20100;-84
2022/03/06 02:46:13;;;;;;;9.38;5.40;;;1.50;99.90;;;;;;6212218;23;20122;-85
2022/03/06 02:48:39;;;;;;;11.40;5.35;;;1.40;99.90;;;;;;6212500;23;20012;-84
2022/03/06 02:51:05;;;;;;;7.60;4.53;;;1.90;99.90;;;;;;6212362;23;20031;-84
2022/03/06 02:53:31;;;;;;;8.95;4.95;;;1.50;99.90;;;;;;6212414;23;20247;-84
2022/03/06 02:55:58;;;;;;;9.80;4.43;;;1.50;99.90;;;;;;6212208;23;20024;-86
2022/03/06 02:58:24;;;;;;;9.35;4.40;;;1.50;99.90;;;;;;6210450;23;20084;-85
2022/03/06 03:00:50;;;;;;;8.85;4.63;;;1.50;99.90;;;;;;6184953;23;20063;-82
2022/03/06 03:03:16;;;;;;;10.80;4.53;;;1.50;99.90;;;;;;6184308;23;20459;-85
2022/03/06 03:05:42;;;;;;;8.75;4.63;;;1.50;99.90;;;;;;6212115;23;20017;-85
2022/03/06 03:08:10;;;;;;;9.00;4.57;;;1.50;99.90;;;;;;6212376;23;20025;-82
2022/03/06 03:10:36;;;;;;;7.85;4.20;;;1.40;99.90;;;;;;6212438;23;20048;-85
2022/03/06 03:13:01;;;;;;;11.63;5.22;;;1.50;99.90;;;;;;6212220;23;20024;-86
2022/03/06 03:15:27;;;;;;;10.73;4.65;;;1.40;99.90;;;;;;6212366;23;20012;-85
2022/03/06 03:17:53;;;;;;;10.00;4.57;;;1.40;99.90;;;;;;6211708;23;20030;-84
2022/03/06 03:20:19;;;;;;;9.77;5.22;;;1.40;99.90;;;;;;6212148;23;20034;-83
2022/03/06 03:22:45;;;;;;;8.40;4.22;;;1.40;99.90;;;;;;6212200;23;20016;-84
2022/03/06 03:25:12;;;;;;;8.95;5.03;;;1.80;99.90;;;;;;6211565;23;20363;-85
2022/03/06 03:27:38;;;;;;;7.97;4.35;;;1.40;99.90;;;;;;6211871;23;20025;-85
2022/03/06 03:30:05;;;;;;;11.48;4.93;;;1.40;99.90;;;;;;6212124;23;20098;-85
2022/03/06 03:32:31;;;;;;;8.10;4.20;;;1.40;99.90;;;;;;6211586;23;20442;-85
2022/03/06 03:34:56;;;;;;;11.40;5.47;;;1.40;99.90;;;;;;6184686;23;20019;-82
2022/03/06 03:37:22;;;;;;;11.23;4.75;;;1.40;99.90;;;;;;6211410;23;20024;-84
2022/03/06 03:39:48;;;;;;;9.23;4.47;;;1.40;99.90;;;;;;6211911;23;20021;-81
2022/03/06 03:42:14;;;;;;;10.05;4.30;;;1.40;99.90;;;;;;6185017;23;20025;-83
2022/03/06 03:44:39;;;;;;;8.60;4.07;;;1.30;99.90;;;;;;6211525;23;20078;-83
2022/03/06 03:47:05;;;;;;;7.32;4.03;;;1.40;99.90;;;;;;6212089;23;20346;-83
2022/03/06 03:49:31;;;;;;;8.88;4.80;;;1.30;99.90;;;;;;6211249;23;20009;-83
2022/03/06 03:51:56;;;;;;;7.60;4.43;;;1.30;99.90;;;;;;6184763;23;20442;-84
2022/03/06 03:54:22;;;;;;;7.95;4.28;;;1.30;99.90;;;;;;6212093;23;20019;-83
2022/03/06 03:56:47;;;;;;;10.00;5.05;;;1.30;99.90;;;;;;6211908;23;20048;-80
2022/03/06 03:59:13;;;;;;;8.40;4.78;;;1.60;99.90;;;;;;6211531;23;20445;-84
2022/03/06 04:01:39;;;;;;;10.05;5.00;;;1.90;99.90;;;;;;6184387;23;20020;-82
2022/03/06 04:04:04;;;;;;;8.10;4.50;;;1.20;99.90;;;;;;6184778;23;20091;-83
2022/03/06 04:06:30;;;;;;;11.15;4.68;;;0.40;99.90;;;;;;6211696;23;20020;-81
2022/03/06 04:08:56;;;;;;;13.32;5.35;;;1.20;99.90;;;;;;6211648;23;20024;-82
2022/03/06 04:11:22;;;;;;;9.32;4.50;;;1.10;99.90;;;;;;6184671;23;20104;-82
2022/03/06 04:13:47;;;;;;;9.88;4.72;;;2.30;99.90;;;;;;6212259;23;20426;-85
2022/03/06 04:16:13;;;;;;;8.77;4.28;;;1.10;99.90;;;;;;6212095;23;20523;-84
2022/03/06 04:18:38;;;;;;;9.95;5.00;;;1.10;99.90;;;;;;6209757;23;20472;-86
2022/03/06 04:21:04;;;;;;;8.57;4.55;;;1.10;99.90;;;;;;6211030;23;20020;-81
2022/03/06 04:23:30;;;;;;;13.80;5.20;;;1.10;99.90;;;;;;6211724;23;20434;-83
2022/03/06 04:25:55;;;;;;;13.68;4.72;;;1.10;99.90;;;;;;6184227;23;20023;-83
2022/03/06 04:28:21;;;;;;;15.18;5.13;;;1.10;99.90;;;;;;6211684;23;20020;-82
2022/03/06 04:30:47;;;;;;;8.75;4.47;;;1.00;99.90;;;;;;6211765;23;20016;-83
2022/03/06 04:33:12;;;;;;;10.77;4.90;;;1.00;99.90;;;;;;6184297;23;20016;-84
2022/03/06 04:35:38;;;;;;;9.50;4.75;;;1.70;99.90;;;;;;6211648;23;20389;-85
2022/03/06 04:38:04;;;;;;;11.38;4.75;;;1.00;99.90;;;;;;6213670;23;20373;-84
2022/03/06 04:40:29;;;;;;;8.70;4.70;;;1.00;99.90;;;;;;6186310;23;20021;-84
2022/03/06 04:42:55;;;;;;;8.60;4.88;;;0.90;99.90;;;;;;6213662;23;20334;-84
2022/03/06 04:45:23;;;;;;;8.90;4.30;;;0.90;99.90;;;;;;6213127;23;20094;-84
2022/03/06 04:47:49;;;;;;;8.57;4.65;;;0.90;99.90;;;;;;6186318;23;20025;-81
2022/03/06 04:50:14;;;;;;;10.23;4.78;;;0.90;99.90;;;;;;6213356;23;20055;-84
2022/03/06 04:52:40;;;;;;;10.00;4.82;;;0.80;99.90;;;;;;6213530;23;20078;-84
2022/03/06 04:55:06;;;;;;;10.93;6.00;;;0.80;99.90;;;;;;6213467;23;20028;-85
2022/03/06 04:57:32;;;;;;;9.13;4.35;;;0.80;99.90;;;;;;6213422;23;20025;-82
2022/03/06 04:59:58;;;;;;;11.65;4.88;;;0.80;99.90;;;;;;6213294;23;20032;-83
2022/03/06 05:02:23;;;;;;;6.90;4.25;;;0.70;99.90;;;;;;6212975;23;20021;-85
2022/03/06 05:04:50;;;;;;;9.63;4.20;;;0.70;99.90;;;;;;6213121;23;20060;-84
2022/03/06 05:07:16;;;;;;;15.68;5.15;;;0.70;99.90;;;;;;6186004;23;20017;-84
2022/03/06 05:09:42;;;;;;;9.27;4.40;;;0.60;99.90;;;;;;6213389;23;20024;-83
2022/03/06 05:12:08;;;;;;;14.05;4.90;;;0.60;99.90;;;;;;6213453;23;20353;-83
2022/03/06 05:14:34;;;;;;;7.57;4.07;;;0.50;99.90;;;;;;6185947;23;20016;-82
2022/03/06 05:17:00;;;;;;;11.05;4.93;;;0.50;99.90;;;;;;6213213;23;20017;-82
2022/03/06 05:19:25;;;;;;;10.48;4.22;;;0.50;99.90;;;;;;6213202;23;20013;-85
2022/03/06 05:21:51;;;;;;;10.57;4.60;;;0.40;99.90;;;;;;6185649;23;20047;-83
2022/03/06 05:24:17;;;;;;;10.48;4.82;;;0.40;99.90;;;;;;6213246;23;20087;-84
2022/03/06 05:26:42;;;;;;;10.93;4.60;;;0.40;99.90;;;;;;6185935;23;20020;-85
2022/03/06 05:29:08;;;;;;;8.93;5.10;;;0.40;99.90;;;;;;6212588;23;20028;-84
2022/03/06 05:31:34;;;;;;;10.10;4.50;;;0.30;99.90;;;;;;6185121;23;20095;-84
2022/03/06 05:33:59;;;;;;;12.05;4.95;;;0.30;99.90;;;;;;6185997;23;20019;-82
2022/03/06 05:36:25;;;;;;;12.82;4.70;;;0.20;99.90;;;;;;6185652;23;20423;-84
2022/03/06 05:38:51;;;;;;;8.13;4.10;;;0.20;99.90;;;;;;6212485;23;20028;-85
2022/03/06 05:41:17;;;;;;;10.13;4.43;;;0.20;99.90;;;;;;6212880;23;20334;-85
2022/03/06 05:43:42;;;;;;;13.65;4.78;;;0.20;99.90;;;;;;6185891;23;20089;-83
2022/03/06 05:46:08;;;;;;;11.63;4.18;;;0.10;99.90;;;;;;6186000;23;20470;-85
2022/03/06 05:48:34;;;;;;;7.13;4.15;;;0.10;99.90;;;;;;6185880;23;20012;-83
2022/03/06 05:50:59;;;;;;;8.10;4.32;;;0.00;99.90;;;;;;6186517;23;20086;-83
2022/03/06 05:53:25;;;;;;;6.60;3.75;;;0.00;99.90;;;;;;6161083;23;20067;-84
2022/03/06 05:55:51;;;;;;;7.10;3.72;;;0.00;99.90;;;;;;6186317;23;20032;-85
2022/03/06 05:58:16;;;;;;;9.15;4.20;;;0.00;99.90;;;;;;6212911;23;20443;-85
2022/03/06 06:00:42;;;;;;;8.50;3.95;;;-0.10;99.90;;;;;;6185576;23;20020;-85
2022/03/06 06:03:07;;;;;;;7.75;4.47;;;-0.20;99.90;;;;;;6212902;23;20016;-86
2022/03/06 06:05:33;;;;;;;10.48;4.60;;;-0.20;99.90;;;;;;6212813;23;20081;-85
2022/03/06 06:08:00;;;;;;;9.95;4.20;;;-0.30;99.90;;;;;;6186207;23;20059;-85
2022/03/06 06:10:25;;;;;;;8.75;4.60;;;-0.30;99.90;;;;;;6213125;23;20028;-82
2022/03/06 06:12:51;;;;;;;10.05;4.40;;;-0.40;99.90;;;;;;6213404;23;20021;-85
2022/03/06 06:15:17;;;;;;;7.18;4.63;;;-0.40;99.90;;;;;;6186321;23;20023;-81
2022/03/06 06:17:42;;;;;;;9.82;3.83;;;-0.40;99.90;;;;;;6213285;23;20009;-85
2022/03/06 06:20:08;;;;;;;12.80;4.13;;;-0.50;99.90;;;;;;6185807;23;20347;-82
2022/03/06 06:22:35;;;;;;;8.70;4.55;;;-0.50;99.90;;;;;;6213093;23;20112;-84
2022/03/06 06:25:02;;;;;;;7.50;3.97;;;-0.50;99.90;;;;;;6185688;23;20025;-80
2022/03/06 06:27:29;;;;;;;6.35;3.70;;;-0.50;99.90;;;;;;6185092;23;20342;-86
2022/03/06 06:29:55;;;;;;;12.07;4.20;;;-0.50;99.90;;;;;;6212830;23;20023;-83
2022/03/06 06:32:21;;;;;;;8.82;4.07;;;-0.60;99.90;;;;;;6212409;23;20035;-80
2022/03/06 06:34:47;;;;;;;8.32;4.20;;;-0.50;99.90;;;;;;6212008;23;20020;-85
2022/03/06 06:37:13;;;;;;;9.40;4.80;;;-0.60;99.90;;;;;;6209849;23;20059;-85
2022/03/06 06:39:39;;;;;;;10.25;4.75;;;-0.60;99.90;;;;;;6212112;23;20024;-83
2022/03/06 06:42:06;;;;;;;9.52;4.00;;;-0.60;99.90;;;;;;6185379;23;20032;-84
2022/03/06 06:44:32;;;;;;;8.18;4.05;;;-0.60;99.90;;;;;;6212240;23;20017;-83
2022/03/06 06:46:58;;;;;;;10.07;4.93;;;-0.60;99.90;;;;;;6212281;23;20031;-85
2022/03/06 06:49:23;;;;;;;10.52;4.57;;;-0.60;99.90;;;;;;6212425;23;20005;-85
2022/03/06 06:51:49;;;;;;;9.85;4.47;;;-0.60;99.90;;;;;;6212059;23;20098;-82
2022/03/06 06:54:15;;;;;;;8.90;4.70;;;-0.60;99.90;;;;;;6212076;23;20016;-85
2022/03/06 06:56:42;;;;;;;9.80;4.28;;;-0.50;99.90;;;;;;6184494;23;20027;-82
2022/03/06 06:59:08;;;;;;;10.20;4.22;;;-0.50;99.90;;;;;;6212341;23;20044;-85
2022/03/06 07:01:33;;;;;;;10.05;4.50;;;-0.50;99.90;;;;;;6211781;23;20333;-85
2022/03/06 07:03:59;;;;;;;9.88;4.20;;;-0.50;99.90;;;;;;6184930;23;20052;-85
2022/03/06 07:06:24;;;;;;;6.63;3.67;;;-0.50;99.90;;;;;;6212354;23;20020;-84
2022/03/06 07:08:51;;;;;;;9.13;4.07;;;-0.50;99.90;;;;;;6212685;23;20017;-84
2022/03/06 07:11:17;;;;;;;5.13;3.13;;;-0.50;99.90;;;;;;6212339;23;20020;-83
2022/03/06 07:13:43;;;;;;;8.07;3.67;;;-0.50;99.90;;;;;;6185204;23;20055;-85
2022/03/06 07:16:08;;;;;;;7.28;3.63;;;-0.50;99.90;;;;;;6212372;23;20092;-84
2022/03/06 07:18:34;;;;;;;11.50;4.15;;;-0.40;99.90;;;;;;6211990;23;20450;-85
2022/03/06 07:21:02;;;;;;;9.95;3.55;;;-0.40;99.90;;;;;;6184892;23;20020;-84
2022/03/06 07:23:29;;;;;;;7.57;3.15;;;-0.40;99.90;;;;;;6212011;23;20024;-85
2022/03/06 07:25:55;;;;;;;6.60;3.22;;;-0.40;99.90;;;;;;6211826;23;20024;-81
2022/03/06 07:28:20;;;;;;;7.45;3.10;;;-0.30;99.90;;;;;;6185024;23;20012;-83
2022/03/06 07:30:48;;;;;;;6.40;2.85;;;-0.30;99.90;;;;;;6211913;23;20418;-84
2022/03/06 07:33:14;;;;;;;7.32;2.67;;;-0.20;99.90;;;;;;6212059;23;20056;-84
2022/03/06 07:35:40;;;;;;;7.53;3.00;;;-0.20;99.90;;;;;;6185056;23;20025;-84
2022/03/06 07:38:06;;;;;;;5.90;2.95;;;-0.10;99.90;;;;;;6211870;23;20004;-85
2022/03/06 07:40:32;;;;;;;6.55;2.72;;;-0.10;99.90;;;;;;6212000;23;20055;-83
2022/03/06 07:42:57;;;;;;;5.15;2.70;;;0.00;99.90;;;;;;6184923;23;20454;-81
2022/03/06 07:45:23;;;;;;;4.82;2.60;;;0.00;99.90;;;;;;6214498;23;20013;-82
2022/03/06 07:47:49;;;;;;;5.82;2.92;;;0.10;99.90;;;;;;6185116;23;20020;-85
2022/03/06 07:50:15;;;;;;;5.03;2.50;;;0.20;99.90;;;;;;6185306;23;20024;-82
2022/03/06 07:52:43;;;;;;;4.60;2.40;;;0.30;99.90;;;;;;6211825;23;20074;-84
2022/03/06 07:55:09;;;;;;;4.55;2.60;;;0.30;99.90;;;;;;6212337;23;20024;-83
2022/03/06 07:57:35;;;;;;;5.00;2.45;;;0.40;99.90;;;;;;6211751;23;20017;-84
2022/03/06 08:00:03;;;;;;;5.88;2.80;;;0.50;99.90;;;;;;6212052;23;20378;-84
2022/03/06 08:02:29;;;;;;;4.85;2.42;;;0.50;99.90;;;;;;6211545;23;20319;-83
2022/03/06 08:04:54;;;;;;;6.57;2.97;;;0.60;99.90;;;;;;6211287;23;20096;-85
2022/03/06 08:07:20;;;;;;;3.80;2.00;;;0.80;99.90;;;;;;6185073;23;20048;-82
2022/03/06 08:09:46;;;;;;;5.60;2.30;;;0.90;99.90;;;;;;6211483;23;20017;-85
2022/03/06 08:12:11;;;;;;;5.47;2.17;;;1.00;99.90;;;;;;6211466;23;20025;-83
2022/03/06 08:14:37;;;;;;;5.35;2.17;;;1.10;99.90;;;;;;6184077;23;20397;-86
2022/03/06 08:17:03;;;;;;;6.65;2.30;;;1.20;99.90;;;;;;6211244;23;20021;-84
2022/03/06 08:19:28;;;;;;;4.32;1.92;;;1.30;99.90;;;;;;6184662;23;20095;-85
2022/03/06 08:21:54;;;;;;;5.85;2.40;;;1.40;99.90;;;;;;6184665;23;20062;-83
2022/03/06 08:24:20;;;;;;;7.07;1.98;;;1.50;99.90;;;;;;6211911;23;20681;-84
2022/03/06 08:26:45;;;;;;;5.82;2.17;;;1.60;99.90;;;;;;6211050;23;20350;-85
2022/03/06 08:29:11;;;;;;;4.20;2.40;;;1.80;99.90;;;;;;6211078;23;20021;-84
2022/03/06 08:31:37;;;;;;;6.07;2.35;;;1.90;99.90;;;;;;6210856;23;20052;-84
2022/03/06 08:34:03;;;;;;;3.35;1.90;;;2.00;99.90;;;;;;6211078;23;20083;-85
2022/03/06 08:36:30;;;;;;;5.90;2.30;;;2.10;99.90;;;;;;6184227;23;20017;-84
2022/03/06 08:38:55;;;;;;;3.72;2.20;;;2.20;99.90;;;;;;6211490;23;20454;-83
2022/03/06 08:41:21;;;;;;;6.80;2.50;;;2.30;99.90;;;;;;6211336;23;20024;-84
2022/03/06 08:43:47;;;;;;;6.07;2.25;;;2.40;99.90;;;;;;6184038;23;20017;-84
2022/03/06 08:46:12;;;;;;;6.18;2.30;;;2.50;99.90;;;;;;6211730;23;20020;-84
2022/03/06 08:48:38;;;;;;;6.38;2.40;;;2.60;99.90;;;;;;6208748;23;20048;-85
2022/03/06 08:51:05;;;;;;;5.30;2.00;;;3.60;99.90;;;;;;6211423;23;20025;-84
2022/03/06 08:53:31;;;;;;;5.45;2.10;;;2.90;99.90;;;;;;6211359;23;20013;-81
2022/03/06 08:55:58;;;;;;;4.68;2.00;;;3.10;99.90;;;;;;6211141;23;20111;-85
2022/03/06 08:58:24;;;;;;;5.45;2.10;;;3.30;99.90;;;;;;6211458;23;20009;-83
2022/03/06 09:00:49;;;;;;;5.70;2.42;;;3.40;99.90;;;;;;6210052;23;20108;-82
2022/03/06 09:03:15;;;;;;;6.07;2.40;;;3.60;99.90;;;;;;6211413;23;20024;-85
2022/03/06 09:05:41;;;;;;;4.65;2.05;;;4.70;99.90;;;;;;6209434;23;20016;-84
2022/03/06 09:08:10;;;;;;;5.50;2.20;;;3.90;99.90;;;;;;6211771;23;20013;-86
2022/03/06 09:10:38;;;;;;;6.85;2.00;;;4.10;99.90;;;;;;6211510;23;20370;-85
2022/03/06 09:13:04;;;;;;;5.72;2.05;;;4.20;99.90;;;;;;6211406;23;20012;-85
2022/03/06 09:15:30;;;;;;;5.35;2.00;;;4.40;99.90;;;;;;6210282;23;20478;-81
2022/03/06 09:17:56;;;;;;;4.50;1.77;;;4.60;99.90;;;;;;6211547;23;20020;-85
2022/03/06 09:20:23;;;;;;;4.32;2.03;;;5.50;99.90;;;;;;6211011;23;20013;-86
2022/03/06 09:22:49;;;;;;;6.53;1.85;;;4.80;99.90;;;;;;6212911;23;20047;-86
2022/03/06 09:25:15;;;;;;;8.63;2.03;;;4.90;99.90;;;;;;6212477;23;20020;-82
2022/03/06 09:27:41;;;;;;;4.75;1.88;;;5.10;99.90;;;;;;6212870;23;20036;-83
2022/03/06 09:30:08;;;;;;;5.50;1.77;;;5.30;99.90;;;;;;6212839;23;20019;-83
2022/03/06 09:32:34;;;;;;;3.47;1.60;;;5.50;99.90;;;;;;6212256;23;20432;-86
2022/03/06 09:34:59;;;;;;;5.57;2.22;;;6.40;99.90;;;;;;6212865;23;20016;-83
2022/03/06 09:37:25;;;;;;;5.00;2.05;;;6.30;99.90;;;;;;6212756;23;20020;-85
2022/03/06 09:39:51;;;;;;;5.82;2.22;;;5.90;99.90;;;;;;6213455;23;20225;-85
2022/03/06 09:42:18;;;;;;;7.85;1.92;;;6.80;99.90;;;;;;6212713;23;20027;-86
2022/03/06 09:44:46;;;;;;;5.55;2.22;;;6.30;99.90;;;;;;6212653;23;20013;-86
2022/03/06 09:47:12;;;;;;;5.03;2.20;;;6.20;99.90;;;;;;6185736;23;20032;-85
2022/03/06 09:49:38;;;;;;;4.72;2.00;;;6.40;99.90;;;;;;6213111;23;20080;-86
2022/03/06 09:52:04;;;;;;;3.60;1.73;;;6.50;99.90;;;;;;6212983;23;20436;-85
2022/03/06 09:54:30;;;;;;;6.32;1.88;;;6.60;99.90;;;;;;6185754;23;20016;-82
2022/03/06 09:56:57;;;;;;;4.03;1.98;;;7.30;99.90;;;;;;6212355;23;20016;-87
2022/03/06 09:59:23;;;;;;;9.95;2.17;;;7.80;99.90;;;;;;6213105;23;20017;-86
2022/03/06 10:01:49;;;;;;;8.23;2.00;;;7.20;99.90;;;;;;6212467;23;20373;-85
2022/03/06 10:04:29;;;;;;;6.50;1.90;;;7.80;99.90;;;;;;6213003;23;20020;-86
2022/03/06 10:07:05;;;;;;;7.07;2.10;;;7.40;99.90;;;;;;6212130;23;20462;-85
2022/03/06 10:09:41;;;;;;;6.55;2.10;;;7.60;99.90;;;;;;6212444;23;20012;-85
2022/03/06 10:12:23;;;;;;;4.97;2.00;;;8.00;99.90;;;;;;6185528;23;20039;-85
2022/03/06 10:14:51;;;;;;;3.25;1.77;;;7.80;99.90;;;;;;6185474;23;20071;-86
2022/03/06 10:17:22;;;;;;;4.65;2.15;;;7.90;99.90;;;;;;6212019;23;20754;-86
2022/03/06 10:19:59;;;;;;;5.93;2.30;;;8.90;99.90;;;;;;6212364;23;20020;-84
2022/03/06 10:22:31;;;;;;;5.43;1.90;;;8.10;99.90;;;;;;6212175;23;20784;-85
2022/03/06 10:25:19;;;;;;;4.28;2.13;;;8.30;99.90;;;;;;6211996;23;20473;-81
2022/03/06 10:27:57;;;;;;;5.72;2.30;;;8.60;99.90;;;;;;6212103;23;20020;-85
2022/03/06 10:30:37;;;;;;;6.38;2.45;;;9.50;99.90;;;;;;6212967;23;20021;-89
2022/03/06 10:33:17;;;;;;;3.78;2.22;;;8.90;99.90;;;;;;6185279;23;20070;-87
2022/03/06 10:35:45;;;;;;;5.22;2.05;;;9.00;99.90;;;;;;6185045;23;20474;-87
2022/03/06 10:38:27;;;;;;;3.95;2.00;;;9.10;99.90;;;;;;6212474;23;20032;-84
2022/03/06 10:40:55;;;;;;;9.98;2.50;;;9.60;99.90;;;;;;6211543;23;20438;-82
2022/03/06 10:43:23;;;;;;;5.05;2.00;;;9.10;99.90;;;;;;6212204;23;20013;-84
2022/03/06 10:45:51;;;;;;;5.65;2.10;;;9.40;99.90;;;;;;6212245;23;20032;-82
2022/03/06 10:48:17;;;;;;;8.35;2.22;;;9.70;99.90;;;;;;6212179;23;20095;-85
2022/03/06 10:50:43;;;;;;;5.07;1.80;;;9.60;99.90;;;;;;6212236;23;20055;-87
2022/03/06 10:53:23;;;;;;;4.75;1.98;;;9.70;99.90;;;;;;6212072;23;20502;-85
2022/03/06 10:55:49;;;;;;;6.00;2.03;;;10.40;99.50;;;;;;6211883;23;20013;-82
2022/03/06 10:58:17;;;;;;;4.78;2.10;;;10.10;99.90;;;;;;6212175;23;20039;-84
2022/03/06 11:00:43;;;;;;;4.85;2.08;;;10.10;99.60;;;;;;6185327;23;20044;-85
2022/03/06 11:03:12;;;;;;;4.70;2.00;;;9.80;99.90;;;;;;6212542;23;20031;-84
2022/03/06 11:05:43;;;;;;;4.78;1.80;;;10.00;99.00;;;;;;6212104;23;20016;-85
2022/03/06 11:08:16;;;;;;;7.72;2.30;;;9.90;99.50;;;;;;6212584;23;20082;-84
2022/03/06 11:10:43;;;;;;;4.25;1.83;;;10.10;99.90;;;;;;6212384;23;20172;-83
2022/03/06 11:13:13;;;;;;;5.63;2.25;;;11.00;99.90;;;;;;6212449;23;20017;-84
2022/03/06 11:15:39;;;;;;;5.45;1.67;;;11.00;99.90;;;;;;6212430;23;20704;-83
2022/03/06 11:18:06;;;;;;;3.05;1.80;;;10.50;99.90;;;;;;6211878;23;20016;-83
2022/03/06 11:20:32;;;;;;;6.85;2.40;;;10.70;99.90;;;;;;6211495;23;20012;-84
2022/03/06 11:23:10;;;;;;;6.25;2.20;;;10.80;98.70;;;;;;6185376;23;20028;-85
2022/03/06 11:25:44;;;;;;;3.67;1.73;;;10.90;98.60;;;;;;6211892;23;20027;-82
2022/03/06 11:28:38;;;;;;;6.97;2.30;;;11.30;99.20;;;;;;6212222;23;20024;-82
2022/03/06 11:31:04;;;;;;;5.93;2.28;;;11.00;97.40;;;;;;6185254;23;20028;-84
2022/03/06 11:33:30;;;;;;;6.70;2.25;;;11.00;97.90;;;;;;6212276;23;20025;-82
2022/03/06 11:35:56;;;;;;;5.70;2.15;;;11.00;98.90;;;;;;6212048;23;20016;-81
2022/03/06 11:38:37;;;;;;;3.92;2.00;;;11.70;98.60;;;;;;6185231;23;20079;-80
2022/03/06 11:41:10;;;;;;;6.30;1.70;;;11.60;98.10;;;;;;6212159;23;20027;-83
2022/03/06 11:43:42;;;;;;;4.80;1.95;;;11.20;97.90;;;;;;6212189;23;20016;-84
2022/03/06 11:46:19;;;;;;;4.78;2.10;;;11.00;96.80;;;;;;6159992;23;20071;-79
2022/03/06 11:48:45;;;;;;;5.60;2.25;;;11.00;98.10;;;;;;6185299;23;20071;-83
2022/03/06 11:51:18;;;;;;;5.20;2.08;;;10.80;98.70;;;;;;6211650;23;20020;-81
2022/03/06 11:53:49;;;;;;;4.13;2.08;;;10.60;98.00;;;;;;6211896;23;20063;-82
2022/03/06 11:56:35;;;;;;;4.88;2.10;;;10.60;99.10;;;;;;6184861;23;20032;-80
2022/03/06 11:59:16;;;;;;;5.25;1.90;;;10.60;97.90;;;;;;6159670;23;20524;-83
2022/03/06 12:01:53;;;;;;;4.43;2.05;;;10.40;98.40;;;;;;6211891;23;20028;-83
2022/03/06 12:04:27;;;;;;;6.38;1.98;;;10.70;97.70;;;;;;6184745;23;20485;-84
2022/03/06 12:06:55;;;;;;;5.25;2.03;;;10.30;99.10;;;;;;6211678;23;20092;-80
2022/03/06 12:09:24;;;;;;;4.70;2.10;;;10.80;99.30;;;;;;6211958;23;20020;-80
2022/03/06 12:11:52;;;;;;;5.40;2.17;;;10.40;97.90;;;;;;6184785;23;20013;-84
2022/03/06 12:14:20;;;;;;;5.78;2.63;;;9.90;98.50;;;;;;6211436;23;20024;-81
2022/03/06 12:17:04;;;;;;;5.45;2.00;;;10.40;99.50;;;;;;6211671;23;20016;-82
2022/03/06 12:19:32;;;;;;;7.00;2.20;;;9.70;99.10;;;;;;6211948;23;20027;-84
2022/03/06 12:22:10;;;;;;;4.70;2.00;;;9.70;99.90;;;;;;6184067;23;20725;-83
2022/03/06 12:24:35;;;;;;;4.47;1.95;;;9.70;99.60;;;;;;6211480;23;20024;-84
2022/03/06 12:27:14;;;;;;;5.47;2.30;;;9.50;99.40;;;;;;6210840;23;20039;-80
2022/03/06 12:29:46;;;;;;;4.97;1.60;;;9.40;99.90;;;;;;6210197;23;20017;-82
2022/03/06 12:32:26;;;;;;;3.78;1.85;;;9.40;99.70;;;;;;6211217;23;20123;-82
2022/03/06 12:35:03;;;;;;;3.80;1.75;;;9.30;99.60;;;;;;6210781;23;20028;-80
2022/03/06 12:37:30;;;;;;;5.03;1.92;;;9.20;99.70;;;;;;6210666;23;20016;-83
2022/03/06 12:39:56;;;;;;;5.47;1.90;;;9.20;99.90;;;;;;6211430;23;20017;-82
2022/03/06 12:42:27;;;;;;;4.25;1.70;;;9.70;99.90;;;;;;6211441;23;20029;-82
2022/03/06 12:44:57;;;;;;;4.40;2.05;;;9.20;99.90;;;;;;6210948;23;20028;-82
2022/03/06 12:47:23;;;;;;;5.10;2.03;;;9.40;99.90;;;;;;6211094;23;20078;-82
2022/03/06 12:49:50;;;;;;;4.75;2.50;;;9.60;99.90;;;;;;6211359;23;20087;-82
2022/03/06 12:52:17;;;;;;;5.45;2.10;;;9.70;99.90;;;;;;6183926;23;20047;-84